Time;durP1;ratioP1;P1;durP2;ratioP2;P2;SDS_P1;SDS_P2;PMS_P1;PMS_P2;Temp;Humidity;BMP_temperature;BMP_pressure;BME280_temperature;BME280_humidity;BME280_pressure;Samples;Min_cycle;Max_cycle;Signal;HPM_P1;HPM_P2
2021/10/26 00:01:07;;;;;;;;;;;11.90;88.20;;;;;;5108829;28;20289;-78
2021/10/26 00:03:32;;;;;;;;;;;11.90;88.20;;;;;;5107335;28;20323;-77
2021/10/26 00:05:58;;;;;;;;;;;11.90;88.20;;;;;;5107318;28;20362;-76
2021/10/26 00:08:23;;;;;;;;;;;12.00;88.20;;;;;;5090435;28;19912;-78
2021/10/26 00:10:49;;;;;;;;;;;12.00;88.30;;;;;;5108708;28;19904;-79
2021/10/26 00:13:15;;;;;;;;;;;12.00;88.30;;;;;;5108908;28;20134;-77
2021/10/26 00:15:40;;;;;;;;;;;12.00;88.30;;;;;;5107318;28;19904;-78
2021/10/26 00:18:06;;;;;;;;;;;12.00;88.50;;;;;;5106929;28;19908;-77
2021/10/26 00:20:31;;;;;;;;;;;11.90;88.40;;;;;;5108584;28;19926;-78
2021/10/26 00:22:57;;;;;;;;;;;12.00;88.60;;;;;;5106468;28;20567;-78
2021/10/26 00:25:23;;;;;;;;;;;11.90;88.70;;;;;;5108481;28;19908;-79
2021/10/26 00:27:49;;;;;;;;;;;11.90;88.70;;;;;;5108652;28;19915;-77
2021/10/26 00:30:15;;;;;;;;;;;11.90;88.90;;;;;;5107100;28;19987;-77
2021/10/26 00:32:40;;;;;;;;;;;11.90;88.90;;;;;;5108719;28;19904;-77
2021/10/26 00:35:06;;;;;;;;;;;11.90;88.90;;;;;;5108208;28;19915;-77
2021/10/26 00:37:32;;;;;;;;;;;11.90;89.00;;;;;;5108390;28;19992;-76
2021/10/26 00:39:57;;;;;;;;;;;11.90;89.00;;;;;;5107131;28;20478;-76
2021/10/26 00:42:23;;;;;;;;;;;11.80;89.50;;;;;;5108293;28;19919;-77
2021/10/26 00:44:48;;;;;;;;;;;11.80;89.30;;;;;;5107050;28;20320;-77
2021/10/26 00:47:14;;;;;;;;;;;11.80;89.50;;;;;;5106990;28;19930;-77
2021/10/26 00:49:40;;;;;;;;;;;11.80;89.50;;;;;;5106998;28;19915;-77
2021/10/26 00:52:06;;;;;;;;;;;11.80;89.70;;;;;;5107008;28;20440;-78
2021/10/26 00:54:31;;;;;;;;;;;11.80;89.90;;;;;;5108362;28;19904;-78
2021/10/26 00:56:58;;;;;;;;;;;11.70;90.00;;;;;;5108280;28;19994;-78
2021/10/26 00:59:23;;;;;;;;;;;11.70;90.00;;;;;;5108282;28;20373;-79
2021/10/26 01:01:49;;;;;;;;;;;11.70;90.10;;;;;;5089718;28;20006;-79
2021/10/26 01:04:15;;;;;;;;;;;11.70;90.20;;;;;;5108272;28;20386;-79
2021/10/26 01:06:41;;;;;;;;;;;11.70;90.30;;;;;;5107996;28;20411;-77
2021/10/26 01:09:07;;;;;;;;;;;11.80;90.30;;;;;;5106728;28;19915;-78
2021/10/26 01:11:33;;;;;;;;;;;11.80;90.40;;;;;;5108248;28;19931;-77
2021/10/26 01:13:59;;;;;;;;;;;11.70;90.50;;;;;;5106962;28;19931;-78
2021/10/26 01:16:25;;;;;;;;;;;11.70;90.50;;;;;;5106763;28;20345;-78
2021/10/26 01:18:52;;;;;;;;;;;11.70;90.50;;;;;;5108047;28;19908;-80
2021/10/26 01:21:17;;;;;;;;;;;11.70;90.60;;;;;;5089841;28;19915;-79
2021/10/26 01:23:43;;;;;;;;;;;11.70;90.50;;;;;;5106748;28;19915;-76
2021/10/26 01:26:09;;;;;;;;;;;11.70;90.60;;;;;;5089924;28;19908;-78
2021/10/26 01:28:34;;;;;;;;;;;11.70;90.60;;;;;;5106800;28;19959;-77
2021/10/26 01:31:00;;;;;;;;;;;11.70;90.60;;;;;;5106723;28;20392;-78
2021/10/26 01:33:26;;;;;;;;;;;11.70;90.70;;;;;;5108301;28;19911;-77
2021/10/26 01:35:52;;;;;;;;;;;11.80;90.80;;;;;;5111570;28;19915;-78
2021/10/26 01:38:21;;;;;;;;;;;11.80;90.90;;;;;;5111604;28;19914;-79
2021/10/26 01:40:47;;;;;;;;;;;11.70;91.20;;;;;;5110355;28;19907;-77
2021/10/26 01:43:12;;;;;;;;;;;11.80;91.00;;;;;;5111840;28;19919;-78
2021/10/26 01:45:38;;;;;;;;;;;11.80;91.00;;;;;;5110066;28;19914;-80
2021/10/26 01:48:03;;;;;;;;;;;11.80;91.10;;;;;;5110305;28;19911;-77
2021/10/26 01:50:29;;;;;;;;;;;11.80;91.10;;;;;;5111408;28;19956;-77
2021/10/26 01:52:55;;;;;;;;;;;11.90;91.20;;;;;;5111564;28;19995;-80
2021/10/26 01:55:22;;;;;;;;;;;11.90;91.30;;;;;;5111241;28;19924;-79
2021/10/26 01:57:47;;;;;;;;;;;11.90;91.30;;;;;;5109948;28;19904;-77
2021/10/26 02:00:14;;;;;;;;;;;11.90;91.30;;;;;;5111201;28;19990;-77
2021/10/26 02:02:40;;;;;;;;;;;11.90;91.40;;;;;;5111049;28;19916;-79
2021/10/26 02:05:06;;;;;;;;;;;12.00;91.50;;;;;;5111113;28;19914;-79
2021/10/26 02:07:32;;;;;;;;;;;12.00;91.50;;;;;;5111027;28;19907;-77
2021/10/26 02:09:58;;;;;;;;;;;12.00;91.50;;;;;;5109532;28;19914;-77
2021/10/26 02:12:24;;;;;;;;;;;12.00;91.60;;;;;;5111098;28;19907;-78
2021/10/26 02:14:49;;;;;;;;;;;12.00;91.60;;;;;;5110914;28;19947;-79
2021/10/26 02:17:15;;;;;;;;;;;11.90;91.60;;;;;;5109575;28;19908;-78
2021/10/26 02:19:41;;;;;;;;;;;11.90;91.60;;;;;;5110758;28;19989;-77
2021/10/26 02:22:06;;;;;;;;;;;11.90;91.80;;;;;;5092313;28;20018;-77
2021/10/26 02:24:32;;;;;;;;;;;11.90;91.90;;;;;;5109488;28;19908;-76
2021/10/26 02:26:58;;;;;;;;;;;11.90;91.90;;;;;;5110672;28;19903;-78
2021/10/26 02:29:23;;;;;;;;;;;11.80;92.10;;;;;;5109357;28;20040;-77
2021/10/26 02:31:49;;;;;;;;;;;11.80;92.30;;;;;;5109211;28;20270;-79
2021/10/26 02:34:16;;;;;;;;;;;11.80;92.40;;;;;;5110483;28;20327;-76
2021/10/26 02:36:41;;;;;;;;;;;11.70;92.60;;;;;;5110383;28;19910;-77
2021/10/26 02:39:07;;;;;;;;;;;11.70;92.70;;;;;;5110404;28;20427;-79
2021/10/26 02:41:33;;;;;;;;;;;11.70;92.70;;;;;;5109032;28;19903;-79
2021/10/26 02:43:59;;;;;;;;;;;11.70;93.00;;;;;;5110116;28;19938;-77
2021/10/26 02:46:24;;;;;;;;;;;11.70;93.00;;;;;;5108524;28;20048;-79
2021/10/26 02:48:50;;;;;;;;;;;11.70;93.20;;;;;;5109071;28;19911;-77
2021/10/26 02:51:15;;;;;;;;;;;11.70;93.30;;;;;;5109066;28;19911;-78
2021/10/26 02:53:41;;;;;;;;;;;11.70;93.40;;;;;;5091905;28;20269;-77
2021/10/26 02:56:07;;;;;;;;;;;11.70;93.60;;;;;;5110067;28;19908;-76
2021/10/26 02:58:33;;;;;;;;;;;11.70;93.70;;;;;;5110323;28;19911;-76
2021/10/26 03:00:58;;;;;;;;;;;11.80;93.80;;;;;;5109316;28;19911;-77
2021/10/26 03:03:24;;;;;;;;;;;11.70;93.80;;;;;;5109799;28;19920;-79
2021/10/26 03:05:50;;;;;;;;;;;11.80;93.90;;;;;;5108568;28;19995;-76
2021/10/26 03:08:16;;;;;;;;;;;11.80;94.00;;;;;;5108646;28;19910;-76
2021/10/26 03:10:42;;;;;;;;;;;11.90;94.20;;;;;;5109712;28;19903;-78
2021/10/26 03:13:08;;;;;;;;;;;11.90;94.30;;;;;;5109658;28;19929;-79
2021/10/26 03:15:33;;;;;;;;;;;11.90;94.40;;;;;;5108461;28;20278;-78
2021/10/26 03:17:59;;;;;;;;;;;11.90;94.50;;;;;;5108266;28;19964;-78
2021/10/26 03:20:25;;;;;;;;;;;12.00;94.70;;;;;;5109714;28;20367;-77
2021/10/26 03:22:51;;;;;;;;;;;11.90;94.80;;;;;;5108190;28;19916;-78
2021/10/26 03:25:17;;;;;;;;;;;12.00;95.00;;;;;;5109631;28;20274;-76
2021/10/26 03:27:42;;;;;;;;;;;11.90;95.00;;;;;;5109667;28;19994;-79
2021/10/26 03:30:08;;;;;;;;;;;12.00;95.10;;;;;;5109819;28;20023;-77
2021/10/26 03:32:34;;;;;;;;;;;12.00;95.20;;;;;;5108482;28;19919;-79
2021/10/26 03:35:00;;;;;;;;;;;12.00;95.30;;;;;;5109593;28;19904;-78
2021/10/26 03:37:25;;;;;;;;;;;12.00;95.50;;;;;;5109457;28;19907;-80
2021/10/26 03:39:55;;;;;;;;;;;12.00;95.50;;;;;;5107945;28;20353;-77
2021/10/26 03:42:24;;;;;;;;;;;12.10;95.70;;;;;;5109138;28;19908;-76
2021/10/26 03:44:50;;;;;;;;;;;12.20;95.80;;;;;;5107797;28;19919;-76
2021/10/26 03:47:16;;;;;;;;;;;12.20;95.90;;;;;;5109104;28;20272;-79
2021/10/26 03:49:42;;;;;;;;;;;12.30;96.00;;;;;;5107494;28;19907;-78
2021/10/26 03:52:08;;;;;;;;;;;12.30;96.00;;;;;;5108769;28;19911;-76
2021/10/26 03:54:35;;;;;;;;;;;12.30;96.10;;;;;;5108682;28;19916;-76
2021/10/26 03:57:01;;;;;;;;;;;12.30;96.20;;;;;;5107538;28;19915;-78
2021/10/26 03:59:30;;;;;;;;;;;12.40;96.30;;;;;;5108865;28;19903;-76
2021/10/26 04:01:57;;;;;;;;;;;12.40;96.30;;;;;;5108640;28;20377;-77
2021/10/26 04:04:22;;;;;;;;;;;12.50;96.40;;;;;;5107381;28;19918;-78
2021/10/26 04:06:48;;;;;;;;;;;12.50;96.50;;;;;;5107389;28;20409;-76
2021/10/26 04:09:22;;;;;;;;;;;12.60;96.60;;;;;;5090987;28;20400;-77
2021/10/26 04:11:53;;;;;;;;;;;12.60;96.60;;;;;;5109034;28;19922;-77
2021/10/26 04:14:19;;;;;;;;;;;12.60;96.60;;;;;;5091500;28;19969;-78
2021/10/26 04:16:44;;;;;;;;;;;12.70;96.70;;;;;;5108636;28;20354;-77
2021/10/26 04:19:10;;;;;;;;;;;12.70;96.70;;;;;;5108783;28;20023;-77
2021/10/26 04:21:36;;;;;;;;;;;12.70;96.80;;;;;;5107414;28;19904;-77
2021/10/26 04:24:02;;;;;;;;;;;12.80;96.80;;;;;;5108804;28;19908;-76
2021/10/26 04:26:27;;;;;;;;;;;12.80;96.90;;;;;;5108510;28;19904;-76
2021/10/26 04:28:53;;;;;;;;;;;12.90;97.00;;;;;;5107456;28;20326;-79
2021/10/26 04:31:18;;;;;;;;;;;12.90;97.00;;;;;;5108527;28;19998;-78
2021/10/26 04:33:44;;;;;;;;;;;12.90;97.00;;;;;;5108514;28;19942;-80
2021/10/26 04:36:10;;;;;;;;;;;12.90;97.00;;;;;;5108197;28;19915;-78
2021/10/26 04:38:35;;;;;;;;;;;13.00;97.10;;;;;;5106842;28;19908;-79
2021/10/26 04:41:02;;;;;;;;;;;13.00;97.10;;;;;;5106925;28;19992;-78
2021/10/26 04:43:27;;;;;;;;;;;13.00;97.20;;;;;;5106809;28;19961;-77
2021/10/26 04:45:53;;;;;;;;;;;13.00;97.20;;;;;;5108242;28;19955;-77
2021/10/26 04:48:19;;;;;;;;;;;13.00;97.20;;;;;;5108392;28;19914;-79
2021/10/26 04:50:45;;;;;;;;;;;13.10;97.30;;;;;;5106950;28;19962;-79
2021/10/26 04:53:11;;;;;;;;;;;13.10;97.30;;;;;;5108227;28;19939;-80
2021/10/26 04:55:36;;;;;;;;;;;13.10;97.40;;;;;;5108218;28;19911;-78
2021/10/26 04:58:02;;;;;;;;;;;13.10;97.40;;;;;;5108418;28;20328;-79
2021/10/26 05:00:30;;;;;;;;;;;13.20;97.40;;;;;;5108194;28;19911;-78
2021/10/26 05:02:55;;;;;;;;;;;13.20;97.50;;;;;;5105627;28;19915;-75
2021/10/26 05:05:21;;;;;;;;;;;13.20;97.50;;;;;;5106816;28;19914;-77
2021/10/26 05:07:47;;;;;;;;;;;13.20;97.50;;;;;;5107189;28;20333;-78
2021/10/26 05:10:12;;;;;;;;;;;13.30;97.50;;;;;;5110866;28;19974;-77
2021/10/26 05:12:38;;;;;;;;;;;13.30;97.50;;;;;;5112059;28;20413;-78
2021/10/26 05:15:04;;;;;;;;;;;13.30;97.50;;;;;;5112062;28;19908;-76
2021/10/26 05:17:31;;;;;;;;;;;13.30;97.60;;;;;;5111942;28;19910;-78
2021/10/26 05:19:57;;;;;;;;;;;13.40;97.60;;;;;;5112025;28;19915;-77
2021/10/26 05:22:25;;;;;;;;;;;13.30;97.60;;;;;;5111984;28;20342;-77
2021/10/26 05:24:50;;;;;;;;;;;13.40;97.70;;;;;;5111432;28;19919;-77
2021/10/26 05:27:17;;;;;;;;;;;13.40;97.70;;;;;;5111909;28;19908;-78
2021/10/26 05:29:43;;;;;;;;;;;13.40;97.80;;;;;;5111703;28;20106;-78
2021/10/26 05:32:11;;;;;;;;;;;13.40;97.80;;;;;;5111669;28;20338;-78
2021/10/26 05:34:37;;;;;;;;;;;13.50;97.80;;;;;;5110045;28;19955;-77
2021/10/26 05:37:03;;;;;;;;;;;13.50;97.80;;;;;;5111589;28;20006;-81
2021/10/26 05:39:29;;;;;;;;;;;13.50;97.80;;;;;;5111496;28;19908;-81
2021/10/26 05:41:55;;;;;;;;;;;13.50;97.80;;;;;;5111494;28;19911;-79
2021/10/26 05:44:20;;;;;;;;;;;13.50;97.80;;;;;;5110284;28;19994;-78
2021/10/26 05:46:46;;;;;;;;;;;13.60;97.80;;;;;;5092936;28;19908;-78
2021/10/26 05:49:11;;;;;;;;;;;13.60;97.80;;;;;;5111452;28;20388;-80
2021/10/26 05:51:37;;;;;;;;;;;13.60;97.80;;;;;;5109847;28;20292;-79
2021/10/26 05:54:03;;;;;;;;;;;13.60;97.80;;;;;;5092707;28;19968;-78
2021/10/26 05:56:28;;;;;;;;;;;13.70;97.80;;;;;;5110821;28;19903;-79
2021/10/26 05:58:54;;;;;;;;;;;13.70;97.90;;;;;;5111193;28;19919;-79
2021/10/26 06:01:21;;;;;;;;;;;13.70;97.90;;;;;;5109890;28;19907;-76
2021/10/26 06:03:46;;;;;;;;;;;13.70;97.80;;;;;;5110885;28;20404;-79
2021/10/26 06:06:12;;;;;;;;;;;13.80;98.10;;;;;;5110819;28;19908;-77
2021/10/26 06:08:38;;;;;;;;;;;13.80;97.90;;;;;;5110958;28;19908;-76
2021/10/26 06:11:11;;;;;;;;;;;13.80;97.90;;;;;;5092685;28;19908;-79
2021/10/26 06:13:43;;;;;;;;;;;13.80;97.90;;;;;;5111008;28;20377;-80
2021/10/26 06:16:08;;;;;;;;;;;13.80;98.00;;;;;;5110656;28;19907;-76
2021/10/26 06:18:34;;;;;;;;;;;13.80;98.00;;;;;;5109162;28;20364;-79
2021/10/26 06:21:00;;;;;;;;;;;13.80;98.10;;;;;;5109543;28;20365;-77
2021/10/26 06:23:25;;;;;;;;;;;13.80;98.10;;;;;;5110158;28;19914;-76
2021/10/26 06:25:51;;;;;;;;;;;13.80;98.10;;;;;;5108847;28;20102;-80
2021/10/26 06:28:17;;;;;;;;;;;13.80;98.10;;;;;;5109988;28;19904;-77
2021/10/26 06:30:42;;;;;;;;;;;13.80;98.10;;;;;;5110553;28;20141;-78
2021/10/26 06:33:08;;;;;;;;;;;13.80;98.10;;;;;;5109046;28;20346;-79
2021/10/26 06:35:34;;;;;;;;;;;13.80;98.10;;;;;;5110186;28;19934;-80
2021/10/26 06:38:00;;;;;;;;;;;13.80;98.20;;;;;;5109189;28;20002;-77
2021/10/26 06:40:25;;;;;;;;;;;13.80;98.30;;;;;;5109083;28;19939;-77
2021/10/26 06:42:51;;;;;;;;;;;13.80;98.50;;;;;;5110080;28;20331;-79
2021/10/26 06:45:16;;;;;;;;;;;13.80;98.50;;;;;;5108684;28;19919;-77
2021/10/26 06:47:42;;;;;;;;;;;13.80;98.50;;;;;;5110026;28;19908;-79
2021/10/26 06:50:08;;;;;;;;;;;13.80;98.50;;;;;;5110020;28;19910;-78
2021/10/26 06:52:34;;;;;;;;;;;13.80;98.50;;;;;;5109965;28;20013;-76
2021/10/26 06:55:01;;;;;;;;;;;13.80;98.50;;;;;;5110124;28;19934;-78
2021/10/26 06:57:28;;;;;;;;;;;13.80;98.50;;;;;;5110282;28;20388;-76
2021/10/26 06:59:53;;;;;;;;;;;13.80;98.60;;;;;;5110150;28;20320;-78
2021/10/26 07:02:19;;;;;;;;;;;13.80;98.60;;;;;;5109342;28;19972;-81
2021/10/26 07:04:46;;;;;;;;;;;13.80;98.70;;;;;;5108322;28;20278;-77
2021/10/26 07:07:12;;;;;;;;;;;13.80;98.70;;;;;;5109927;28;19911;-79
2021/10/26 07:09:38;;;;;;;;;;;13.90;98.80;;;;;;5108750;28;19907;-78
2021/10/26 07:12:04;;;;;;;;;;;13.90;98.80;;;;;;5091934;28;20262;-77
2021/10/26 07:14:30;;;;;;;;;;;13.80;98.80;;;;;;5108125;28;19914;-81
2021/10/26 07:16:55;;;;;;;;;;;13.80;98.80;;;;;;5107962;28;19908;-81
2021/10/26 07:19:21;;;;;;;;;;;13.90;99.00;;;;;;5108083;28;19908;-77
2021/10/26 07:21:47;;;;;;;;;;;13.90;99.00;;;;;;5091288;28;19916;-78
2021/10/26 07:24:13;;;;;;;;;;;13.90;99.00;;;;;;5109273;28;20424;-80
2021/10/26 07:26:40;;;;;;;;;;;13.90;99.00;;;;;;5109348;28;19908;-78
2021/10/26 07:29:06;;;;;;;;;;;13.90;99.00;;;;;;5109166;28;20361;-80
2021/10/26 07:31:32;;;;;;;;;;;13.90;99.10;;;;;;5108795;28;19908;-77
2021/10/26 07:33:59;;;;;;;;;;;13.90;99.10;;;;;;5108943;28;19904;-77
2021/10/26 07:36:27;;;;;;;;;;;14.00;99.10;;;;;;5107498;28;19904;-78
2021/10/26 07:39:06;;;;;;;;;;;14.00;99.10;;;;;;5107728;28;19918;-77
2021/10/26 07:41:33;;;;;;;;;;;14.10;99.10;;;;;;5109073;28;19908;-76
2021/10/26 07:43:58;;;;;;;;;;;14.10;99.10;;;;;;5107454;28;19998;-77
2021/10/26 07:46:24;;;;;;;;;;;14.20;99.10;;;;;;5108715;28;19994;-77
2021/10/26 07:48:50;;;;;;;;;;;14.20;99.00;;;;;;5108707;28;19952;-79
2021/10/26 07:51:15;;;;;;;;;;;14.20;99.00;;;;;;5090259;28;19957;-79
2021/10/26 07:53:41;;;;;;;;;;;14.20;99.00;;;;;;5107158;28;19960;-78
2021/10/26 07:56:08;;;;;;;;;;;14.20;99.00;;;;;;5108651;28;19931;-77
2021/10/26 07:58:35;;;;;;;;;;;14.30;99.00;;;;;;5107139;28;20361;-79
2021/10/26 08:01:01;;;;;;;;;;;14.30;99.10;;;;;;5108396;28;19908;-79
2021/10/26 08:03:26;;;;;;;;;;;14.30;99.10;;;;;;5089561;28;19920;-76
2021/10/26 08:05:55;;;;;;;;;;;14.30;99.10;;;;;;5107249;28;19908;-76
2021/10/26 08:08:21;;;;;;;;;;;14.30;99.10;;;;;;5107008;28;19911;-76
2021/10/26 08:10:47;;;;;;;;;;;14.40;99.30;;;;;;5106912;28;19909;-77
2021/10/26 08:13:13;;;;;;;;;;;14.40;99.10;;;;;;5108439;28;19911;-77
2021/10/26 08:15:39;;;;;;;;;;;14.40;99.10;;;;;;5108449;28;19904;-76
2021/10/26 08:18:05;;;;;;;;;;;14.40;99.10;;;;;;5107159;28;19908;-77
2021/10/26 08:20:31;;;;;;;;;;;14.50;99.10;;;;;;5107406;28;20369;-78
2021/10/26 08:22:56;;;;;;;;;;;14.50;99.10;;;;;;5108215;28;19912;-76
2021/10/26 08:25:34;;;;;;;;;;;14.50;99.00;;;;;;5106684;28;19919;-76
2021/10/26 08:28:00;;;;;;;;;;;14.50;99.00;;;;;;5106967;28;19938;-76
2021/10/26 08:30:36;;;;;;;;;;;14.60;99.00;;;;;;5107807;28;19968;-79
2021/10/26 08:33:16;;;;;;;;;;;14.60;99.00;;;;;;5106933;28;20003;-77
2021/10/26 08:35:41;;;;;;;;;;;14.70;99.10;;;;;;5107812;28;20356;-77
2021/10/26 08:38:07;;;;;;;;;;;14.70;99.10;;;;;;5108518;28;19912;-79
2021/10/26 08:40:35;;;;;;;;;;;14.70;99.00;;;;;;5108288;28;19950;-77
2021/10/26 08:43:06;;;;;;;;;;;14.80;99.00;;;;;;5108951;28;19961;-80
2021/10/26 08:45:36;;;;;;;;;;;14.90;99.00;;;;;;5112302;28;20258;-78
2021/10/26 08:48:04;;;;;;;;;;;14.90;99.00;;;;;;5112473;28;20397;-79
2021/10/26 08:50:34;;;;;;;;;;;15.00;99.00;;;;;;5112523;28;19908;-78
2021/10/26 08:53:00;;;;;;;;;;;15.00;99.00;;;;;;5112096;28;20358;-77
2021/10/26 08:55:26;;;;;;;;;;;15.10;99.00;;;;;;5112221;28;20227;-78
2021/10/26 08:57:52;;;;;;;;;;;15.20;98.90;;;;;;5112716;28;19912;-78
2021/10/26 09:00:18;;;;;;;;;;;15.30;98.80;;;;;;5114218;28;20262;-76
2021/10/26 09:02:46;;;;;;;;;;;15.40;98.80;;;;;;5112808;28;20018;-78
2021/10/26 09:05:14;;;;;;;;;;;15.40;98.70;;;;;;5113205;28;19903;-77
2021/10/26 09:07:39;;;;;;;;;;;15.50;98.60;;;;;;5113355;28;19908;-80
2021/10/26 09:10:09;;;;;;;;;;;15.60;98.50;;;;;;5101371;28;20501;-79
2021/10/26 09:17:51;;;;;;;;;;;15.80;98.30;;;;;;5101999;28;20447;-80
2021/10/26 09:20:21;;;;;;;;;;;15.80;98.20;;;;;;5098675;28;19948;-79
2021/10/26 09:22:51;;;;;;;;;;;15.90;98.10;;;;;;5099146;28;19911;-78
2021/10/26 09:25:18;;;;;;;;;;;15.90;98.00;;;;;;5104667;28;20328;-79
2021/10/26 09:27:44;;;;;;;;;;;16.00;98.00;;;;;;5101258;28;19957;-79
2021/10/26 09:30:14;;;;;;;;;;;16.20;98.10;;;;;;5101702;28;20004;-80
2021/10/26 09:32:43;;;;;;;;;;;16.40;98.00;;;;;;5093817;28;19911;-79
2021/10/26 09:35:10;;;;;;;;;;;16.70;97.90;;;;;;5093944;28;19911;-79
2021/10/26 09:37:45;;;;;;;;;;;16.80;97.30;;;;;;5092345;28;19929;-79
2021/10/26 09:40:10;;;;;;;;;;;16.80;96.80;;;;;;5092570;28;19903;-80
2021/10/26 09:42:43;;;;;;;;;;;16.70;96.70;;;;;;5096136;28;20196;-79
2021/10/26 09:45:11;;;;;;;;;;;16.60;96.70;;;;;;5093203;28;20347;-78
2021/10/26 09:47:37;;;;;;;;;;;16.60;96.80;;;;;;5092253;28;20011;-79
2021/10/26 09:50:04;;;;;;;;;;;16.60;96.80;;;;;;5091576;28;20379;-79
2021/10/26 09:52:31;;;;;;;;;;;16.60;96.80;;;;;;5091854;28;19991;-78
2021/10/26 09:55:20;;;;;;;;;;;16.60;96.80;;;;;;5107936;28;19912;-80
2021/10/26 09:57:47;;;;;;;;;;;16.60;96.80;;;;;;5107695;28;19908;-80
2021/10/26 10:00:17;;;;;;;;;;;16.70;96.90;;;;;;5103247;28;19908;-80
2021/10/26 10:02:43;;;;;;;;;;;16.70;96.80;;;;;;5100001;28;19923;-80
2021/10/26 10:05:20;;;;;;;;;;;16.80;96.80;;;;;;5106152;28;19908;-80
2021/10/26 10:07:45;;;;;;;;;;;16.90;96.80;;;;;;5096097;28;19995;-75
2021/10/26 10:10:11;;;;;;;;;;;17.00;96.60;;;;;;5092699;28;20366;-81
2021/10/26 10:12:38;;;;;;;;;;;17.10;96.40;;;;;;5095699;28;19972;-79
2021/10/26 10:15:07;;;;;;;;;;;17.20;96.40;;;;;;5097550;28;19912;-79
2021/10/26 10:17:36;;;;;;;;;;;17.30;96.40;;;;;;5091422;28;20323;-79
2021/10/26 10:20:06;;;;;;;;;;;17.40;96.40;;;;;;5097981;28;19912;-78
2021/10/26 10:22:32;;;;;;;;;;;17.60;96.10;;;;;;5103533;28;20279;-78
2021/10/26 10:24:59;;;;;;;;;;;17.70;95.80;;;;;;5087938;28;20251;-76
2021/10/26 10:27:32;;;;;;;;;;;17.70;95.80;;;;;;5098654;28;19972;-79
2021/10/26 10:29:58;;;;;;;;;;;17.80;95.50;;;;;;5101856;28;20326;-75
2021/10/26 10:32:25;;;;;;;;;;;17.80;95.20;;;;;;5103711;28;19911;-76
2021/10/26 10:34:51;;;;;;;;;;;17.90;95.10;;;;;;5095143;28;20330;-77
2021/10/26 10:37:20;;;;;;;;;;;17.90;95.20;;;;;;5096938;28;20392;-79
2021/10/26 10:39:46;;;;;;;;;;;18.00;95.10;;;;;;5100215;28;19904;-80
2021/10/26 10:42:13;;;;;;;;;;;18.10;95.00;;;;;;5088112;28;19919;-81
2021/10/26 10:44:39;;;;;;;;;;;18.30;94.90;;;;;;5106826;28;19926;-80
2021/10/26 10:47:10;;;;;;;;;;;18.60;94.80;;;;;;5109555;28;19908;-80
2021/10/26 10:49:35;;;;;;;;;;;19.20;94.90;;;;;;5111359;28;19947;-83
2021/10/26 10:52:04;;;;;;;;;;;20.00;94.50;;;;;;5108220;28;19904;-79
2021/10/26 10:54:39;;;;;;;;;;;20.60;93.40;;;;;;5091051;28;19910;-78
2021/10/26 10:57:24;;;;;;;;;;;20.90;92.20;;;;;;5101773;28;20333;-78
2021/10/26 10:59:54;;;;;;;;;;;20.90;91.40;;;;;;5099182;28;19905;-73
2021/10/26 11:02:46;;;;;;;;;;;20.70;90.60;;;;;;5100319;28;20301;-79
2021/10/26 11:05:31;;;;;;;;;;;20.40;90.60;;;;;;5079931;28;20414;-78
2021/10/26 11:08:00;;;;;;;;;;;20.20;90.70;;;;;;5084684;28;19954;-78
2021/10/26 11:10:46;;;;;;;;;;;20.20;91.10;;;;;;5086588;28;19904;-77
2021/10/26 11:13:16;;;;;;;;;;;20.30;91.00;;;;;;5069969;28;19908;-78
2021/10/26 11:15:43;;;;;;;;;;;20.40;91.00;;;;;;5070884;28;20282;-78
2021/10/26 11:18:09;;;;;;;;;;;20.50;90.70;;;;;;5068802;28;19958;-78
2021/10/26 11:20:36;;;;;;;;;;;20.60;90.20;;;;;;5070871;28;19915;-77
2021/10/26 11:23:04;;;;;;;;;;;20.40;89.70;;;;;;5068885;28;20360;-78
2021/10/26 11:25:34;;;;;;;;;;;20.10;89.70;;;;;;5070324;28;19904;-77
2021/10/26 11:28:02;;;;;;;;;;;19.80;89.60;;;;;;5069378;28;19904;-81
2021/10/26 11:30:28;;;;;;;;;;;19.50;90.00;;;;;;5053461;28;19999;-79
2021/10/26 11:33:14;;;;;;;;;;;19.30;90.30;;;;;;5086041;28;19955;-79
2021/10/26 11:35:46;;;;;;;;;;;19.10;90.40;;;;;;5086602;28;19961;-78
2021/10/26 11:38:12;;;;;;;;;;;18.90;90.70;;;;;;5075986;28;19958;-79
2021/10/26 11:40:48;;;;;;;;;;;18.90;90.80;;;;;;5078400;28;19904;-75
2021/10/26 11:43:15;;;;;;;;;;;18.80;90.90;;;;;;5086090;28;19908;-79
2021/10/26 11:45:52;;;;;;;;;;;18.70;91.00;;;;;;5086258;28;19998;-77
2021/10/26 11:48:59;;;;;;;;;;;18.70;91.10;;;;;;5071148;28;19904;-80
2021/10/26 11:51:33;;;;;;;;;;;18.60;91.20;;;;;;5043248;28;19995;-75
2021/10/26 11:54:36;;;;;;;;;;;18.50;91.20;;;;;;5031030;28;19963;-78
2021/10/26 11:57:04;;;;;;;;;;;18.50;91.30;;;;;;4962317;28;19936;-79
2021/10/26 11:59:31;;;;;;;;;;;18.50;91.30;;;;;;5063919;28;20339;-78
2021/10/26 12:01:57;;;;;;;;;;;18.50;91.30;;;;;;5071451;28;19904;-80
2021/10/26 12:04:28;;;;;;;;;;;18.50;91.40;;;;;;5085686;28;19920;-79
2021/10/26 12:06:58;;;;;;;;;;;18.60;91.50;;;;;;5104825;28;19952;-78
2021/10/26 12:09:25;;;;;;;;;;;18.70;91.40;;;;;;5104703;28;19903;-79
2021/10/26 12:11:52;;;;;;;;;;;18.80;91.30;;;;;;5090167;28;19929;-80
2021/10/26 12:14:17;;;;;;;;;;;18.80;91.20;;;;;;5094910;28;20260;-80
2021/10/26 12:17:01;;;;;;;;;;;18.90;91.30;;;;;;5110024;28;19994;-78
2021/10/26 12:19:28;;;;;;;;;;;19.00;91.10;;;;;;5109547;28;19914;-80
2021/10/26 12:21:54;;;;;;;;;;;19.00;91.10;;;;;;5091400;28;19916;-78
2021/10/26 12:24:24;;;;;;;;;;;19.10;91.00;;;;;;5110653;28;19904;-78
2021/10/26 12:27:16;;;;;;;;;;;19.10;90.90;;;;;;5102057;28;20411;-78
2021/10/26 12:29:42;;;;;;;;;;;19.20;90.90;;;;;;5072079;28;19968;-79
2021/10/26 12:32:08;;;;;;;;;;;19.20;90.80;;;;;;5092558;28;19908;-79
2021/10/26 12:34:37;;;;;;;;;;;19.30;90.70;;;;;;5088299;28;19911;-79
2021/10/26 12:37:16;;;;;;;;;;;19.40;90.70;;;;;;5096318;28;19964;-78
2021/10/26 12:39:45;;;;;;;;;;;19.70;91.20;;;;;;5100279;28;19915;-78
2021/10/26 12:42:27;;;;;;;;;;;20.00;90.50;;;;;;5101180;28;19916;-77
2021/10/26 12:44:53;;;;;;;;;;;20.20;90.30;;;;;;5114046;28;20427;-76
2021/10/26 12:47:18;;;;;;;;;;;20.30;90.00;;;;;;5097954;28;19907;-79
2021/10/26 12:49:44;;;;;;;;;;;20.30;89.60;;;;;;5101350;28;19998;-77
2021/10/26 12:52:11;;;;;;;;;;;20.30;89.00;;;;;;5105577;28;19911;-77
2021/10/26 12:54:37;;;;;;;;;;;20.30;88.60;;;;;;5093329;28;19908;-76
2021/10/26 12:57:02;;;;;;;;;;;20.30;88.60;;;;;;5099116;28;20360;-78
2021/10/26 12:59:28;;;;;;;;;;;20.20;88.20;;;;;;5098959;28;20361;-80
2021/10/26 13:02:02;;;;;;;;;;;20.20;87.80;;;;;;5100989;28;20366;-77
2021/10/26 13:04:28;;;;;;;;;;;20.00;87.90;;;;;;5089074;28;19923;-78
2021/10/26 13:06:59;;;;;;;;;;;19.90;88.30;;;;;;5089214;28;20257;-77
2021/10/26 13:09:25;;;;;;;;;;;19.90;88.10;;;;;;5089539;28;19918;-73
2021/10/26 13:12:02;;;;;;;;;;;19.80;88.30;;;;;;5087566;28;19904;-75
2021/10/26 13:14:39;;;;;;;;;;;19.80;88.10;;;;;;5089015;28;19908;-77
2021/10/26 13:17:21;;;;;;;;;;;19.70;88.30;;;;;;5088504;28;19911;-78
2021/10/26 13:19:47;;;;;;;;;;;19.60;88.30;;;;;;5090015;28;20269;-79
2021/10/26 13:22:13;;;;;;;;;;;19.50;88.40;;;;;;5071632;28;20014;-78
2021/10/26 13:24:39;;;;;;;;;;;19.40;88.60;;;;;;5072816;28;19916;-77
2021/10/26 13:27:06;;;;;;;;;;;19.40;89.00;;;;;;5108793;28;19953;-78
2021/10/26 13:29:40;;;;;;;;;;;19.40;88.90;;;;;;5112005;28;20273;-79
2021/10/26 13:32:07;;;;;;;;;;;19.40;88.80;;;;;;5111828;28;19903;-76
2021/10/26 13:34:34;;;;;;;;;;;19.40;89.00;;;;;;5102974;28;20318;-79
2021/10/26 13:37:00;;;;;;;;;;;19.30;89.00;;;;;;5099932;28;19951;-80
2021/10/26 13:39:26;;;;;;;;;;;19.30;89.00;;;;;;5092760;28;19943;-75
2021/10/26 13:41:55;;;;;;;;;;;19.30;89.00;;;;;;5100670;28;19912;-75
2021/10/26 13:44:21;;;;;;;;;;;19.30;89.10;;;;;;5104590;28;19908;-80
2021/10/26 13:46:47;;;;;;;;;;;19.20;89.10;;;;;;5108782;28;20547;-79
2021/10/26 13:49:13;;;;;;;;;;;19.20;89.40;;;;;;5113473;28;20003;-80
2021/10/26 13:51:39;;;;;;;;;;;19.20;89.30;;;;;;5096187;28;19904;-80
2021/10/26 13:54:04;;;;;;;;;;;19.30;89.20;;;;;;5110172;28;19972;-80
2021/10/26 13:56:30;;;;;;;;;;;19.20;89.20;;;;;;5100171;28;19917;-78
2021/10/26 13:58:56;;;;;;;;;;;19.20;89.20;;;;;;5103135;28;19923;-79
2021/10/26 14:01:21;;;;;;;;;;;19.20;89.10;;;;;;5097954;28;19904;-77
2021/10/26 14:03:48;;;;;;;;;;;19.20;89.10;;;;;;5091096;28;19920;-79
2021/10/26 14:06:13;;;;;;;;;;;19.20;89.20;;;;;;5091403;28;20358;-78
2021/10/26 14:08:41;;;;;;;;;;;19.20;89.10;;;;;;5104088;28;19914;-78
2021/10/26 14:11:07;;;;;;;;;;;19.20;89.10;;;;;;5108536;28;19957;-78
2021/10/26 14:13:37;;;;;;;;;;;19.20;89.40;;;;;;5103373;28;19987;-78
2021/10/26 14:16:03;;;;;;;;;;;19.10;89.00;;;;;;5108713;28;19904;-77
2021/10/26 14:18:28;;;;;;;;;;;19.10;89.10;;;;;;5102902;28;19908;-78
2021/10/26 14:20:58;;;;;;;;;;;19.00;89.20;;;;;;5099481;28;20476;-76
2021/10/26 14:23:26;;;;;;;;;;;19.00;89.30;;;;;;5110677;28;19918;-77